createdAt,value
2019-01-05T00:03:17.660Z,-2.74
2019-01-05T00:06:03.646Z,-2.73
2019-01-05T00:08:49.646Z,-2.71
2019-01-05T00:11:35.620Z,-2.72
2019-01-05T00:17:22.657Z,-2.74
2019-01-05T00:20:30.219Z,-2.71
2019-01-05T00:26:09.749Z,-2.67
2019-01-05T00:31:50.086Z,-2.67
2019-01-05T00:34:57.632Z,-2.71
2019-01-05T00:40:37.589Z,-2.71
2019-01-05T00:43:23.764Z,-2.71
2019-01-05T00:46:31.313Z,-2.71
2019-01-05T00:52:52.125Z,-2.72
2019-01-05T00:55:40.109Z,-2.76
2019-01-05T00:58:26.105Z,-2.76
2019-01-05T01:01:12.291Z,-2.79
2019-01-05T01:03:58.277Z,-2.76
2019-01-05T01:06:44.263Z,-2.78
2019-01-05T01:09:30.264Z,-2.80
2019-01-05T01:15:03.884Z,-2.83
2019-01-05T01:17:49.880Z,-2.83
2019-01-05T01:20:35.862Z,-2.85
2019-01-05T01:26:27.550Z,-2.81
2019-01-05T01:29:35.122Z,-2.80
2019-01-05T01:32:21.095Z,-2.84
2019-01-05T01:38:02.990Z,-2.85
2019-01-05T01:40:49.344Z,-2.83
2019-01-05T01:46:39.652Z,-2.80
2019-01-05T01:49:25.727Z,-2.79
2019-01-05T01:52:33.277Z,-2.79
2019-01-05T01:55:19.368Z,-2.78
2019-01-05T01:58:05.478Z,-2.76
2019-01-05T02:01:13.026Z,-2.77
2019-01-05T02:04:20.576Z,-2.80
2019-01-05T02:10:28.946Z,-2.80
2019-01-05T02:13:36.495Z,-2.81
2019-01-05T02:23:16.184Z,-2.84
2019-01-05T02:35:30.849Z,-2.88
2019-01-05T02:38:56.338Z,-2.88
2019-01-05T02:42:03.901Z,-2.84
2019-01-05T02:45:29.384Z,-2.90
2019-01-05T02:51:53.827Z,-2.89
2019-01-05T02:55:01.386Z,-2.90
2019-01-05T02:58:26.910Z,-2.86
2019-01-05T03:01:34.443Z,-2.85
2019-01-05T03:04:59.957Z,-2.86
2019-01-05T03:08:25.441Z,-2.88
2019-01-05T03:11:50.956Z,-2.86
2019-01-05T03:15:16.462Z,-2.86
2019-01-05T03:18:24.070Z,-2.82
2019-01-05T03:28:20.115Z,-2.85
2019-01-05T03:34:41.765Z,-2.86
2019-01-05T03:41:08.184Z,-2.88
2019-01-05T03:47:34.205Z,-2.82
2019-01-05T03:50:59.996Z,-2.82
2019-01-05T03:54:07.545Z,-2.80
2019-01-05T04:03:34.095Z,-2.77
2019-01-05T04:15:44.416Z,-2.73
2019-01-05T04:31:15.330Z,-2.76
2019-01-05T04:34:22.889Z,-2.79
2019-01-05T04:41:18.611Z,-2.78
2019-01-05T04:44:26.144Z,-2.76
2019-01-05T04:47:33.721Z,-2.75
2019-01-05T04:50:41.267Z,-2.81
2019-01-05T04:57:21.608Z,-2.79
2019-01-05T05:00:47.115Z,-2.80
2019-01-05T05:04:12.638Z,-2.76
2019-01-05T05:07:38.127Z,-2.78
2019-01-05T05:11:03.962Z,-2.81
2019-01-05T05:14:29.464Z,-2.82
2019-01-05T05:17:37.016Z,-2.81
2019-01-05T05:21:02.536Z,-2.79
2019-01-05T05:24:28.024Z,-2.82
2019-01-05T05:27:35.569Z,-2.79
2019-01-05T05:31:01.092Z,-2.76
2019-01-05T05:37:39.895Z,-2.72
2019-01-05T05:44:04.435Z,-2.71
2019-01-05T05:54:16.250Z,-2.77
2019-01-05T06:12:31.634Z,-2.71
2019-01-05T06:18:39.613Z,-2.76
2019-01-05T06:22:05.149Z,-2.75
2019-01-05T06:25:31.978Z,-2.78
2019-01-05T06:28:57.491Z,-2.76
2019-01-05T06:35:24.433Z,-2.73
2019-01-05T06:41:48.592Z,-2.76
2019-01-05T06:48:12.990Z,-2.79
2019-01-05T06:57:45.406Z,-2.80
2019-01-05T07:01:10.900Z,-2.79
2019-01-05T07:04:36.431Z,-2.83
2019-01-05T07:08:01.938Z,-2.83
2019-01-05T07:17:32.628Z,-2.88
2019-01-05T07:20:40.198Z,-2.90
2019-01-05T07:27:15.810Z,-2.88
2019-01-05T07:30:41.299Z,-2.87
2019-01-05T07:34:07.628Z,-2.85
2019-01-05T07:37:33.122Z,-2.90
2019-01-05T07:40:40.685Z,-2.88
2019-01-05T07:44:06.185Z,-2.91
2019-01-05T07:50:51.691Z,-2.89
2019-01-05T07:53:59.266Z,-2.89
2019-01-05T07:57:06.813Z,-2.96
2019-01-05T08:03:45.876Z,-2.94
2019-01-05T08:07:12.159Z,-2.92
2019-01-05T08:10:19.720Z,-2.98
2019-01-05T08:13:45.226Z,-2.91
2019-01-05T08:16:52.773Z,-2.87
2019-01-05T08:20:00.305Z,-2.86
2019-01-05T08:23:25.827Z,-2.94
2019-01-05T08:36:30.633Z,-3.29
2019-01-05T08:39:56.435Z,-3.36
2019-01-05T08:52:51.362Z,-4.02
2019-01-05T08:56:16.881Z,-4.06
2019-01-05T08:59:42.369Z,-4.31
2019-01-05T09:03:07.880Z,-4.49
2019-01-05T09:06:33.680Z,-4.52
2019-01-05T09:09:41.242Z,-4.56
2019-01-05T09:13:06.716Z,-4.66
2019-01-05T09:16:14.573Z,-4.75
2019-01-05T09:22:53.711Z,-5.04
2019-01-05T09:26:01.550Z,-5.04
2019-01-05T09:29:27.036Z,-5.01
2019-01-05T09:32:52.551Z,-5.14
2019-01-05T09:42:50.342Z,-5.47
2019-01-05T09:45:57.945Z,-5.50
2019-01-05T09:49:23.410Z,-5.51
2019-01-05T09:52:31.278Z,-5.62
2019-01-05T09:55:57.360Z,-5.67
2019-01-05T10:02:05.916Z,-5.77
2019-01-05T10:08:55.355Z,-5.87
2019-01-05T10:12:20.845Z,-5.96
2019-01-05T10:15:28.667Z,-5.97
2019-01-05T10:21:50.030Z,-6.04
2019-01-05T10:28:13.539Z,-6.21
2019-01-05T10:31:39.354Z,-6.31
2019-01-05T10:34:46.920Z,-6.40
2019-01-05T10:41:10.778Z,-6.56
2019-01-05T10:47:19.389Z,-6.71
2019-01-05T10:50:44.910Z,-6.77
2019-01-05T11:00:24.097Z,-6.89
2019-01-05T11:12:53.223Z,-6.82
2019-01-05T11:16:19.013Z,-6.76
2019-01-05T11:19:26.564Z,-6.69
2019-01-05T11:25:52.919Z,-6.48
2019-01-05T11:29:00.496Z,-6.41
2019-01-05T11:38:28.081Z,-6.24
2019-01-05T11:41:53.889Z,-6.22
2019-01-05T11:45:19.659Z,-6.14
2019-01-05T11:48:45.177Z,-6.13
2019-01-05T11:52:10.991Z,-6.06
2019-01-05T11:55:36.493Z,-5.95
2019-01-05T11:58:44.048Z,-5.92
2019-01-05T12:08:05.686Z,-5.74
2019-01-05T12:11:31.451Z,-5.63
2019-01-05T12:14:56.949Z,-5.60
2019-01-05T12:18:04.534Z,-5.59
2019-01-05T12:21:30.047Z,-5.52
2019-01-05T12:31:00.613Z,-5.49
2019-01-05T12:34:26.143Z,-5.45
2019-01-05T12:37:51.621Z,-5.46
2019-01-05T12:41:17.394Z,-5.47
2019-01-05T12:44:25.069Z,-5.43
2019-01-05T12:47:32.879Z,-5.42
2019-01-05T12:50:58.410Z,-5.40
2019-01-05T12:54:05.952Z,-5.41
2019-01-05T12:57:13.535Z,-5.38
2019-01-05T13:00:39.336Z,-5.39
2019-01-05T13:03:47.169Z,-5.44
2019-01-05T13:06:54.706Z,-5.48
2019-01-05T13:10:20.220Z,-5.50
2019-01-05T13:13:45.725Z,-5.55
2019-01-05T13:17:11.531Z,-5.60
2019-01-05T13:20:19.081Z,-5.70
2019-01-05T13:23:26.948Z,-5.76
2019-01-05T13:26:34.486Z,-5.86
2019-01-05T13:29:42.067Z,-5.94
2019-01-05T13:36:08.029Z,-6.19
2019-01-05T13:42:55.158Z,-6.45
2019-01-05T13:49:19.187Z,-6.60
2019-01-05T13:52:44.977Z,-6.67
2019-01-05T14:01:27.034Z,-7.05
2019-01-05T14:06:47.178Z,-7.26
2019-01-05T14:09:33.461Z,-7.37
2019-01-05T14:14:53.630Z,-7.45
2019-01-05T14:17:40.443Z,-7.50
2019-01-05T14:20:26.453Z,-7.63
2019-01-05T14:23:12.491Z,-7.75
2019-01-05T14:25:58.499Z,-7.88
2019-01-05T14:28:44.504Z,-8.01
2019-01-05T14:31:30.490Z,-8.10
2019-01-05T14:34:16.782Z,-8.20
2019-01-05T14:40:03.362Z,-8.37
2019-01-05T14:42:49.362Z,-8.42
2019-01-05T14:45:35.380Z,-8.52
2019-01-05T14:48:21.652Z,-8.65
2019-01-05T14:51:07.666Z,-8.74
2019-01-05T15:01:53.049Z,-9.67
2019-01-05T15:04:39.066Z,-9.08
2019-01-05T15:07:25.058Z,-9.14
2019-01-05T15:10:11.074Z,-9.19
2019-01-05T15:12:57.067Z,-9.26
2019-01-05T15:15:43.076Z,-9.36
2019-01-05T15:18:29.065Z,-9.46
2019-01-05T15:23:52.499Z,-9.59
2019-01-05T15:26:38.501Z,-9.65
2019-01-05T15:29:24.740Z,-9.72
2019-01-05T15:32:10.747Z,-9.73
2019-01-05T15:40:18.035Z,-9.74
2019-01-05T15:43:04.040Z,-9.76
2019-01-05T15:48:37.644Z,-9.83
2019-01-05T15:51:23.645Z,-9.87
2019-01-05T15:54:09.650Z,-9.86
2019-01-05T15:56:55.668Z,-9.87
2019-01-05T15:59:41.672Z,-9.93
2019-01-05T16:02:27.661Z,-9.92
2019-01-05T16:05:13.667Z,-9.96
2019-01-05T16:10:47.261Z,-10.00
2019-01-05T16:13:33.278Z,-10.07
2019-01-05T16:16:19.278Z,-10.12
2019-01-05T16:19:05.286Z,-10.15
2019-01-05T16:21:51.281Z,-10.15
2019-01-05T16:24:37.286Z,-10.14
2019-01-05T16:27:23.276Z,-10.17
2019-01-05T16:30:09.294Z,-10.24
2019-01-05T16:32:55.294Z,-10.27
2019-01-05T16:35:41.567Z,-10.28
2019-01-05T16:38:27.574Z,-10.29
2019-01-05T16:41:13.578Z,-10.35
2019-01-05T16:43:59.849Z,-10.40
2019-01-05T16:46:45.858Z,-10.46
2019-01-05T16:49:31.852Z,-10.55
2019-01-05T16:52:17.861Z,-10.61
2019-01-05T16:55:03.867Z,-10.59
2019-01-05T16:57:49.865Z,-10.64
2019-01-05T17:00:35.878Z,-10.68
2019-01-05T17:06:09.467Z,-10.75
2019-01-05T17:08:55.455Z,-10.78
2019-01-05T17:11:41.469Z,-10.83
2019-01-05T17:14:27.464Z,-10.89
2019-01-05T17:22:21.369Z,-11.12
2019-01-05T17:25:07.366Z,-11.44
2019-01-05T17:27:53.386Z,-11.22
2019-01-05T17:30:39.383Z,-11.23
2019-01-05T17:33:25.375Z,-11.26
2019-01-05T17:36:11.363Z,-11.32
2019-01-05T17:41:31.768Z,-11.35
2019-01-05T17:44:17.799Z,-11.32
2019-01-05T17:47:03.876Z,-11.32
2019-01-05T17:49:49.876Z,-11.34
2019-01-05T17:52:35.896Z,-11.32
2019-01-05T17:55:21.871Z,-11.39
2019-01-05T17:58:07.899Z,-11.54
2019-01-05T18:00:53.900Z,-11.58
2019-01-05T18:03:39.891Z,-11.71
2019-01-05T18:09:00.242Z,-11.77
2019-01-05T18:11:46.220Z,-11.75
2019-01-05T18:17:06.481Z,-11.82
2019-01-05T18:22:40.072Z,-11.82
2019-01-05T18:25:26.115Z,-11.80
2019-01-05T18:28:12.088Z,-11.83
2019-01-05T18:30:58.106Z,-11.94
2019-01-05T18:33:44.220Z,-11.99
2019-01-05T18:36:30.226Z,-11.98
2019-01-05T18:39:16.235Z,-11.96
2019-01-05T18:42:02.260Z,-11.95
2019-01-05T18:47:35.869Z,-11.98
2019-01-05T18:58:44.796Z,-12.14
2019-01-05T19:01:30.745Z,-12.15
2019-01-05T19:04:16.775Z,-12.17
2019-01-05T19:07:02.733Z,-12.16
2019-01-05T19:09:48.741Z,-12.23
2019-01-05T19:12:34.739Z,-12.33
2019-01-05T19:15:20.758Z,-12.42
2019-01-05T19:18:06.738Z,-12.49
2019-01-05T19:20:52.753Z,-12.57
2019-01-05T19:23:38.750Z,-12.65
2019-01-05T19:26:24.808Z,-12.70
2019-01-05T19:29:10.784Z,-12.72
2019-01-05T19:31:56.782Z,-12.75
2019-01-05T19:34:42.822Z,-12.77
2019-01-05T19:40:02.642Z,-12.85
2019-01-05T19:42:48.653Z,-12.90
2019-01-05T19:48:08.587Z,-12.99
2019-01-05T19:50:54.589Z,-13.00
2019-01-05T19:53:40.592Z,-12.99
2019-01-05T19:56:26.602Z,-12.98
2019-01-05T20:02:00.209Z,-13.01
2019-01-05T20:04:46.205Z,-13.05
2019-01-05T20:07:32.200Z,-13.05
2019-01-05T20:10:18.184Z,-13.04
2019-01-05T20:13:04.189Z,-13.08
2019-01-05T20:15:50.179Z,-13.11
2019-01-05T20:21:09.799Z,-13.12
2019-01-05T20:23:55.806Z,-13.07
2019-01-05T20:26:41.809Z,-13.07
2019-01-05T20:29:27.821Z,-13.07
2019-01-05T20:32:13.801Z,-13.06
2019-01-05T20:34:59.818Z,-13.10
2019-01-05T20:37:45.805Z,-13.15
2019-01-05T20:40:31.809Z,-13.20
2019-01-05T20:43:17.806Z,-13.20
2019-01-05T20:48:37.615Z,-13.16
2019-01-05T20:51:23.616Z,-13.16
2019-01-05T20:54:09.626Z,-13.16
2019-01-05T20:56:55.619Z,-13.13
2019-01-05T20:59:41.617Z,-13.10
2019-01-05T21:02:29.137Z,-13.05
2019-01-05T21:05:15.753Z,-13.01
2019-01-05T21:08:01.745Z,-12.98
2019-01-05T21:10:48.009Z,-13.00
2019-01-05T21:13:34.010Z,-13.04
2019-01-05T21:16:20.020Z,-13.08
2019-01-05T21:19:05.999Z,-13.04
2019-01-05T21:21:52.020Z,-13.07
2019-01-05T21:24:38.003Z,-13.10
2019-01-05T21:27:24.020Z,-13.13
2019-01-05T21:32:57.619Z,-13.18
2019-01-05T21:35:43.912Z,-13.24
2019-01-05T21:38:29.904Z,-13.27
2019-01-05T21:41:15.914Z,-13.41
2019-01-05T21:46:49.501Z,-13.37
2019-01-05T21:49:35.495Z,-13.44
2019-01-05T21:54:55.693Z,-13.53
2019-01-05T21:57:41.686Z,-13.50
2019-01-05T22:03:28.483Z,-13.43
2019-01-05T22:06:14.557Z,-13.44
2019-01-05T22:09:00.577Z,-13.45
2019-01-05T22:14:34.173Z,-13.30
2019-01-05T22:17:20.409Z,-13.24
2019-01-05T22:25:14.396Z,-13.33
2019-01-05T22:33:25.482Z,-13.53
2019-01-05T22:36:11.531Z,-13.59
2019-01-05T22:38:57.812Z,-13.59
2019-01-05T22:41:43.820Z,-13.50
2019-01-05T22:47:17.410Z,-13.55
2019-01-05T22:50:03.402Z,-13.59
2019-01-05T22:55:23.688Z,-13.70
2019-01-05T22:58:09.687Z,-13.73
2019-01-05T23:00:55.672Z,-13.75
2019-01-05T23:03:41.666Z,-13.77
2019-01-05T23:09:15.314Z,-13.79
2019-01-05T23:12:01.310Z,-13.83
2019-01-05T23:14:47.308Z,-13.85
2019-01-05T23:17:33.289Z,-13.88
2019-01-05T23:22:53.476Z,-13.97
2019-01-05T23:25:39.486Z,-13.98
2019-01-05T23:28:25.495Z,-13.98
2019-01-05T23:31:11.499Z,-13.97
2019-01-05T23:36:45.093Z,-13.98
2019-01-05T23:39:31.087Z,-14.00
2019-01-05T23:42:17.113Z,-13.96
2019-01-05T23:47:50.695Z,-13.91
2019-01-05T23:50:36.983Z,-13.93
2019-01-05T23:53:22.988Z,-13.89
2019-01-05T23:56:09.001Z,-13.91
2019-01-05T23:58:54.984Z,-13.97
